Aeroporto :
LOGIN :

Iscrizione | Disclaimer

   EN    FR    IT 

 










Sommario :    VFR   VFR Marginale   IFR   IFR Intensivo   IFR Molto Intensivo
Visibilità : 
Base nubi : 
>= 8 km
>= 3000ft
5 / 8 km
1000 / 3000 ft
1500m / 5 km
500 / 1000 ft
800 / 1500m
200 / 500 ft
< 800m
< 200 ft
Simboli :   Temporali  Nebbia  Neve Forte  Precipitazioni Forti  Vento > 20 kt
SIGMETs :   Varie  Temporali  Ghiacco  Turbolenza  Onda orograficha  Ceneri Vulcaniche






- Altitudine del aeroporto : 353 ft
- Codice IATA : CND


LRCK - Constanta

ULTIMO METAR :
  • 270230Z 22011KT CAVOK 10/08 Q0998 NOSIG

METARs OBSOLETI :
  • 270200Z 23012KT CAVOK 10/07 Q0997 NOSIG
  • 270130Z 24009KT CAVOK 12/08 Q0997 NOSIG
  • 270100Z 25005KT CAVOK 07/05 Q0998 NOSIG
  • 270030Z 27009KT CAVOK 08/06 Q0998 NOSIG
  • 270000Z 26008KT CAVOK 09/06 Q0998 NOSIG
  • 262330Z 23007KT CAVOK 09/06 Q0998 NOSIG

TAF TAF LRCK
Valido dal 27 a 00 ore il 28 a 00 ore UTC


262300Z 2700/2724 22014KT CAVOK
TEMPO 2707/2710 24020G30KT
BECMG 2714/2716 31012KT
TEMPO 2714/2718 31015G30KT 5000 -SHRA SCT035CB



MetMap, La meteo Aeronautica in un colpo d'occhio ! - Copyright ORBIFLY Dicembre 2007 - Disclaimer

ORBIFLY MET'MAP TEAM :

Programmazione e sviluppo : Alexandra Zaïnal
Concezione : Baudouin d'Aumeries
Aiuto per la programmazione : Marc-Olivier Méhu
Supporto tecnico e logistico : Manuel Goepfert
Aiuto per la traduzione : Arnaldo La Scala

Contatto : metmap@orbifly.com




FONTI E CREDITI :

   NOAA